Time;durP1;ratioP1;P1;durP2;ratioP2;P2;SDS_P1;SDS_P2;PMS_P1;PMS_P2;Temp;Humidity;BMP_temperature;BMP_pressure;BME280_temperature;BME280_humidity;BME280_pressure;Samples;Min_cycle;Max_cycle;Signal;HPM_P1;HPM_P2
2021/03/31 00:00:31;;;;;;;17.02;9.63;;;;;;;6.18;45.85;100818.83;1802700;78;21115;-62
2021/03/31 00:03:00;;;;;;;15.10;9.20;;;;;;;6.14;46.22;100815.37;1790719;78;21922;-61
2021/03/31 00:05:29;;;;;;;15.72;9.08;;;;;;;6.12;46.16;100820.15;1794124;78;21630;-62
2021/03/31 00:07:57;;;;;;;12.10;9.18;;;;;;;6.12;46.18;100813.20;1787335;78;21581;-61
2021/03/31 00:10:35;;;;;;;15.03;9.25;;;;;;;6.15;45.96;100810.55;1772619;78;21185;-67
2021/03/31 00:13:05;;;;;;;15.20;9.58;;;;;;;6.17;45.74;100814.02;1789970;78;21547;-62
2021/03/31 00:15:33;;;;;;;;;;;;;;;6.18;45.77;100815.77;1801359;78;22104;-61
2021/03/31 00:18:09;;;;;;;13.25;9.00;;;;;;;6.19;45.91;100812.27;1805618;78;21329;-62
2021/03/31 00:20:39;;;;;;;11.73;8.75;;;;;;;6.15;45.75;100814.47;1771227;80;21747;-61
2021/03/31 00:23:08;;;;;;;14.53;9.45;;;;;;;6.16;45.77;100812.30;1796119;78;21492;-62
2021/03/31 00:25:36;;;;;;;12.58;9.75;;;;;;;6.23;45.59;100815.73;1777681;79;21206;-63
2021/03/31 00:28:06;;;;;;;15.43;10.00;;;;;;;6.24;45.57;100813.56;1775256;79;21908;-61
2021/03/31 00:30:34;;;;;;;15.60;9.28;;;;;;;6.27;45.46;100806.13;1778646;79;21209;-62
2021/03/31 00:33:02;;;;;;;;;;;;;;;6.31;45.42;100798.70;1779188;79;21580;-62
2021/03/31 00:35:31;;;;;;;11.73;8.23;;;;;;;6.30;45.50;100798.28;1804537;78;20483;-62
2021/03/31 00:37:59;;;;;;;14.33;9.68;;;;;;;6.27;45.50;100805.69;1796215;78;21607;-63
2021/03/31 00:40:37;;;;;;;16.12;9.38;;;;;;;6.28;45.60;100802.20;1797856;78;22018;-62
2021/03/31 00:43:05;;;;;;;16.52;10.10;;;;;;;6.30;45.58;100803.06;1777601;79;21629;-62
2021/03/31 00:45:34;;;;;;;12.18;8.83;;;;;;;6.27;45.91;100806.98;1789381;78;21568;-63
2021/03/31 00:48:05;;;;;;;13.53;9.60;;;;;;;6.28;45.96;100800.05;1786922;78;21674;-63
2021/03/31 00:50:33;;;;;;;15.48;9.65;;;;;;;6.29;46.01;100796.13;1806728;78;21700;-63
2021/03/31 00:53:02;;;;;;;12.25;9.33;;;;;;;6.29;46.14;100794.81;1777154;79;21780;-62
2021/03/31 00:55:30;;;;;;;13.35;9.45;;;;;;;6.29;46.16;100784.78;1795699;78;21647;-62
2021/03/31 00:57:59;;;;;;;14.25;10.15;;;;;;;6.23;46.30;100785.69;1805965;78;21196;-62
2021/03/31 01:00:27;;;;;;;17.45;9.65;;;;;;;6.22;46.37;100790.50;1791997;78;21562;-62
2021/03/31 01:02:55;;;;;;;19.05;10.03;;;;;;;6.22;46.39;100784.84;1807580;78;21123;-62
2021/03/31 01:05:26;;;;;;;12.55;9.53;;;;;;;6.20;46.59;100789.20;1796588;78;21593;-62
2021/03/31 01:07:55;;;;;;;15.83;8.90;;;;;;;6.20;46.55;100793.13;1785309;78;21663;-63
2021/03/31 01:10:29;;;;;;;12.85;9.60;;;;;;;6.20;46.60;100781.81;1779739;80;21551;-62
2021/03/31 01:13:39;;;;;;;10.43;8.43;;;;;;;6.15;46.73;100783.13;1783732;79;21475;-62
2021/03/31 01:16:25;;;;;;;15.15;9.53;;;;;;;6.16;46.72;100780.97;1702696;82;21622;-61
2021/03/31 01:19:07;;;;;;;15.28;9.60;;;;;;;6.16;46.80;100776.16;1681831;83;22075;-61
2021/03/31 01:22:08;;;;;;;12.47;9.58;;;;;;;6.11;47.01;100780.12;1676470;83;21681;-67
2021/03/31 01:25:06;;;;;;;10.88;9.10;;;;;;;6.07;47.58;100772.33;1709083;82;21613;-62
2021/03/31 01:27:55;;;;;;;12.80;8.48;;;;;;;6.04;47.52;100770.58;1702858;81;21648;-63
2021/03/31 01:30:54;;;;;;;14.00;9.25;;;;;;;6.04;48.13;100771.44;1698293;81;21699;-61
2021/03/31 01:33:59;;;;;;;13.55;9.35;;;;;;;6.02;48.98;100771.89;1694004;81;21664;-62
2021/03/31 01:36:27;;;;;;;17.35;10.53;;;;;;;6.01;48.80;100764.09;1678073;83;21582;-62
2021/03/31 01:38:59;;;;;;;15.00;9.20;;;;;;;5.92;49.38;100757.59;1708608;82;21648;-62
2021/03/31 01:41:27;;;;;;;11.08;8.40;;;;;;;5.88;50.58;100759.77;1716584;81;21571;-62
2021/03/31 01:43:57;;;;;;;12.58;9.70;;;;;;;5.84;50.72;100758.94;1718790;81;21659;-63
2021/03/31 01:46:28;;;;;;;14.63;8.98;;;;;;;5.80;51.24;100756.78;1723494;81;22099;-62
2021/03/31 01:48:59;;;;;;;13.53;9.33;;;;;;;5.80;51.20;100751.56;1720125;81;21642;-63
2021/03/31 01:51:28;;;;;;;16.20;9.35;;;;;;;5.77;51.36;100748.95;1674257;83;21591;-63
2021/03/31 01:53:57;;;;;;;16.20;9.83;;;;;;;5.75;51.84;100744.64;1665566;83;21695;-64
2021/03/31 01:56:26;;;;;;;14.95;9.95;;;;;;;5.73;52.16;100746.39;1703615;82;21661;-66
2021/03/31 01:58:55;;;;;;;15.15;10.23;;;;;;;5.70;52.23;100745.09;1716773;82;21996;-63
2021/03/31 02:01:23;;;;;;;14.13;10.45;;;;;;;5.67;52.05;100736.84;1721950;82;21712;-63
2021/03/31 02:03:54;;;;;;;13.72;9.10;;;;;;;5.66;52.54;100745.09;1716660;82;21198;-62
2021/03/31 02:06:27;;;;;;;15.23;10.38;;;;;;;5.68;52.24;100739.02;1716083;81;21588;-62
2021/03/31 02:08:55;;;;;;;16.85;10.03;;;;;;;5.64;52.21;100743.38;1684643;81;21718;-70
2021/03/31 02:11:26;;;;;;;15.35;10.50;;;;;;;5.61;53.01;100736.86;1715108;82;21864;-62
2021/03/31 02:13:54;;;;;;;11.65;9.78;;;;;;;5.62;52.69;100741.22;1707571;82;21717;-63
2021/03/31 02:16:21;;;;;;;;;;;;;;;5.63;53.14;100738.61;1683209;83;21630;-62
2021/03/31 02:18:52;;;;;;;12.68;9.35;;;;;;;5.55;53.79;100736.45;1707874;83;20585;-63
2021/03/31 02:21:20;;;;;;;13.55;9.08;;;;;;;5.50;54.66;100738.65;1703935;83;21578;-63
2021/03/31 02:23:48;;;;;;;12.60;9.35;;;;;;;5.50;53.93;100742.56;1700388;82;22010;-63
2021/03/31 02:26:17;;;;;;;13.18;9.90;;;;;;;5.48;54.49;100730.83;1707183;82;28721;-62
2021/03/31 02:28:45;;;;;;;13.32;9.95;;;;;;;5.46;54.91;100737.38;1703738;83;22187;-62
2021/03/31 02:31:15;;;;;;;15.78;10.45;;;;;;;5.48;54.46;100727.36;1703929;83;21628;-62
2021/03/31 02:33:44;;;;;;;14.65;10.63;;;;;;;5.48;54.66;100726.91;1709474;82;21209;-62
2021/03/31 02:36:13;;;;;;;13.30;9.55;;;;;;;5.46;54.30;100725.64;1708753;82;22089;-63
2021/03/31 02:38:42;;;;;;;14.68;10.23;;;;;;;5.41;54.55;100726.09;1684291;83;21620;-63
2021/03/31 02:41:12;;;;;;;14.93;10.40;;;;;;;5.42;54.28;100733.02;1686847;84;21583;-64
2021/03/31 02:43:43;;;;;;;13.22;9.68;;;;;;;5.42;54.58;100726.95;1703209;83;21614;-63
2021/03/31 02:46:15;;;;;;;13.98;9.33;;;;;;;5.43;54.34;100728.25;1684244;84;21677;-63
2021/03/31 02:48:43;;;;;;;16.52;10.13;;;;;;;5.43;54.39;100726.09;1680115;84;22116;-63
2021/03/31 02:51:11;;;;;;;15.50;9.40;;;;;;;5.42;54.94;100730.41;1681538;84;21627;-64
2021/03/31 02:53:40;;;;;;;13.98;9.78;;;;;;;5.40;54.59;100726.95;1687700;83;21729;-64
2021/03/31 02:56:09;;;;;;;13.48;9.75;;;;;;;5.42;55.42;100729.11;1709287;81;21158;-66
2021/03/31 02:58:41;;;;;;;17.42;9.25;;;;;;;5.39;55.98;100728.28;1679508;84;21684;-65
2021/03/31 03:01:10;;;;;;;12.73;10.20;;;;;;;5.36;55.90;100718.72;1712652;82;22119;-63
2021/03/31 03:03:38;;;;;;;14.65;10.65;;;;;;;5.36;56.46;100721.77;1714473;82;21606;-63
2021/03/31 03:06:07;;;;;;;16.52;10.23;;;;;;;5.33;55.90;100714.84;1715263;81;21511;-61
2021/03/31 03:08:35;;;;;;;15.23;10.32;;;;;;;5.33;56.87;100717.45;1712441;82;21689;-62
2021/03/31 03:11:06;;;;;;;16.05;10.58;;;;;;;5.35;56.23;100712.20;1684169;84;21180;-62
2021/03/31 03:13:33;;;;;;;;;;;;;;;5.34;56.35;100716.55;1701201;82;22012;-63
2021/03/31 03:16:01;;;;;;;;;;;;;;;5.34;56.72;100713.09;1683456;84;20496;-61
2021/03/31 03:18:29;;;;;;;14.85;10.23;;;;;;;5.28;56.96;100711.37;1673347;83;20522;-62
2021/03/31 03:20:57;;;;;;;13.62;10.72;;;;;;;5.20;57.80;100715.31;1685348;84;21609;-62
2021/03/31 03:23:25;;;;;;;18.75;10.35;;;;;;;5.18;57.57;100713.56;1594555;85;22139;-62
2021/03/31 03:25:54;;;;;;;15.60;10.28;;;;;;;5.18;57.66;100711.84;1659656;84;22204;-63
2021/03/31 03:28:24;;;;;;;19.60;11.28;;;;;;;5.21;57.49;100707.91;1668865;84;21968;-63
2021/03/31 03:30:52;;;;;;;16.10;10.25;;;;;;;5.20;57.78;100702.28;1682637;84;21685;-63
2021/03/31 03:33:20;;;;;;;15.05;10.48;;;;;;;5.24;57.82;100707.05;1684189;84;21597;-64
2021/03/31 03:35:47;;;;;;;15.35;10.55;;;;;;;5.22;58.10;100704.88;1683188;84;21596;-62
2021/03/31 03:38:15;;;;;;;16.85;10.58;;;;;;;5.19;58.32;100708.34;1667587;84;21656;-62
2021/03/31 03:40:45;;;;;;;14.58;10.08;;;;;;;5.19;57.98;100694.45;1648015;85;21689;-62
2021/03/31 03:43:16;;;;;;;14.58;10.38;;;;;;;5.21;58.06;100696.62;1659785;84;21727;-63
2021/03/31 03:45:45;;;;;;;14.10;10.43;;;;;;;5.19;58.08;100696.62;1673695;84;21159;-62
2021/03/31 03:48:13;;;;;;;14.05;10.53;;;;;;;5.21;58.12;100697.92;1675783;84;21686;-65
2021/03/31 03:50:41;;;;;;;16.75;10.38;;;;;;;5.23;58.09;100703.99;1678689;84;21596;-62
2021/03/31 03:53:10;;;;;;;12.75;9.83;;;;;;;5.27;58.04;100699.19;1683887;84;21499;-62
2021/03/31 03:55:37;;;;;;;14.55;10.13;;;;;;;5.25;58.36;100702.24;1676341;84;27049;-62
2021/03/31 03:58:07;;;;;;;15.40;10.80;;;;;;;5.24;58.20;100696.62;1681248;84;21621;-62
2021/03/31 04:00:36;;;;;;;13.98;10.80;;;;;;;5.25;58.12;100703.13;1679465;84;21687;-62
2021/03/31 04:03:03;;;;;;;13.18;9.75;;;;;;;5.24;58.99;100700.08;1684957;84;21610;-62
2021/03/31 04:05:32;;;;;;;16.60;10.55;;;;;;;5.25;58.45;100695.72;1680605;84;21673;-62
2021/03/31 04:08:01;;;;;;;15.25;10.10;;;;;;;5.23;58.78;100689.20;1683683;84;21550;-63
2021/03/31 04:10:28;;;;;;;;;;;;;;;5.22;58.75;100691.41;1686934;84;21704;-64
2021/03/31 04:12:59;;;;;;;11.97;9.00;;;;;;;5.26;58.61;100690.95;1686881;84;20241;-62
2021/03/31 04:15:27;;;;;;;13.72;10.43;;;;;;;5.27;58.13;100693.97;1696862;82;21977;-69
2021/03/31 04:17:55;;;;;;;15.78;11.50;;;;;;;5.29;58.56;100690.06;1694034;82;21676;-62
2021/03/31 04:20:24;;;;;;;14.95;10.85;;;;;;;5.28;58.69;100695.72;1674412;82;28840;-63
2021/03/31 04:22:52;;;;;;;15.60;10.75;;;;;;;5.27;59.15;100693.97;1700904;82;21648;-62
2021/03/31 04:25:21;;;;;;;;;;;;;;;5.27;59.28;100696.58;1710696;82;21588;-62
2021/03/31 04:27:50;;;;;;;16.45;10.80;;;;;;;5.29;60.38;100696.58;1693216;83;22064;-62
2021/03/31 04:30:19;;;;;;;14.58;10.50;;;;;;;5.25;60.23;100698.33;1699086;82;21622;-61
2021/03/31 04:32:49;;;;;;;21.02;14.93;;;;;;;5.25;59.93;100702.24;1711001;82;21651;-61
2021/03/31 04:35:21;;;;;;;15.93;11.60;;;;;;;5.27;60.41;100700.49;1692121;83;21635;-64
2021/03/31 04:37:49;;;;;;;16.37;11.18;;;;;;;5.26;60.41;100693.12;1710515;82;21633;-64
2021/03/31 04:40:20;;;;;;;17.80;11.57;;;;;;;5.24;60.83;100699.22;1716105;82;21984;-63
2021/03/31 04:45:06;;;;;;;15.68;11.25;;;;;;;5.24;63.18;100696.62;1737414;79;23216;-64
2021/03/31 04:47:35;;;;;;;14.43;11.30;;;;;;;5.16;62.13;100695.76;1710893;82;21210;-65
2021/03/31 04:50:10;;;;;;;16.90;10.80;;;;;;;5.14;62.23;100687.08;1718950;80;22126;-63
2021/03/31 04:52:38;;;;;;;18.05;11.25;;;;;;;5.13;63.14;100686.66;1712210;81;21571;-63
2021/03/31 04:55:08;;;;;;;19.92;11.38;;;;;;;5.16;63.49;100690.12;1717498;80;21608;-62
2021/03/31 04:57:36;;;;;;;16.27;11.43;;;;;;;5.14;65.37;100685.36;1715167;80;21679;-62
2021/03/31 05:00:07;;;;;;;16.05;11.12;;;;;;;5.10;64.15;100686.22;1715996;80;21663;-62
2021/03/31 05:02:35;;;;;;;17.15;12.30;;;;;;;5.09;64.42;100690.16;1726552;80;21922;-62
2021/03/31 05:05:04;;;;;;;;;;;;;;;5.06;64.66;100685.80;1716495;80;21623;-61
2021/03/31 05:07:32;;;;;;;15.45;11.33;;;;;;;5.11;66.33;100686.66;1711906;82;20501;-62
2021/03/31 05:10:00;;;;;;;15.05;11.20;;;;;;;5.27;64.89;100688.77;1717730;80;21882;-61
2021/03/31 05:12:28;;;;;;;17.40;11.93;;;;;;;5.32;64.73;100688.31;1716199;80;21604;-63
2021/03/31 05:14:56;;;;;;;;;;;;;;;5.35;64.54;100690.92;1714493;82;21905;-63
2021/03/31 05:17:25;;;;;;;16.73;10.93;;;;;;;5.38;65.44;100689.58;1711645;80;20501;-63
2021/03/31 05:19:52;;;;;;;14.00;11.20;;;;;;;5.36;65.51;100693.94;1714386;80;27236;-63
2021/03/31 05:22:21;;;;;;;15.65;11.35;;;;;;;5.32;65.42;100690.92;1714156;82;21583;-63
2021/03/31 05:24:49;;;;;;;16.95;10.80;;;;;;;5.32;65.37;100690.92;1715626;80;21585;-63
2021/03/31 05:27:17;;;;;;;;;;;;;;;5.29;65.88;100690.92;1714830;80;21955;-63
2021/03/31 05:29:45;;;;;;;14.83;10.25;;;;;;;5.28;65.78;100689.20;1708588;82;20594;-63
2021/03/31 05:32:13;;;;;;;17.17;12.10;;;;;;;5.26;65.74;100693.56;1708013;82;25831;-63
2021/03/31 05:34:41;;;;;;;;;;;;;;;5.26;64.93;100697.03;1723646;80;21548;-62
2021/03/31 05:37:12;;;;;;;18.75;12.25;;;;;;;5.29;64.94;100696.58;1715839;80;20487;-62
2021/03/31 05:39:41;;;;;;;15.48;12.23;;;;;;;5.31;64.73;100698.30;1717154;80;21660;-63
2021/03/31 05:42:10;;;;;;;19.55;12.45;;;;;;;5.33;64.89;100698.30;1721000;80;21582;-62
2021/03/31 05:44:38;;;;;;;17.62;12.80;;;;;;;5.36;64.87;100692.63;1698487;80;21585;-62
2021/03/31 05:47:06;;;;;;;19.65;13.93;;;;;;;5.40;64.63;100694.80;1703401;81;21651;-62
2021/03/31 05:49:34;;;;;;;23.00;14.30;;;;;;;5.42;64.53;100693.90;1702327;81;21576;-62
2021/03/31 05:52:03;;;;;;;25.62;14.65;;;;;;;5.45;64.62;100689.13;1696287;81;21995;-62
2021/03/31 05:54:30;;;;;;;26.33;15.38;;;;;;;5.50;65.41;100679.95;1703506;81;21647;-62
2021/03/31 05:56:58;;;;;;;;;;;;;;;5.61;65.22;100680.77;1707894;81;21128;-62
2021/03/31 05:59:26;;;;;;;;;;;;;;;5.78;65.52;100680.66;1706889;81;20533;-62
2021/03/31 06:01:53;;;;;;;20.05;14.10;;;;;;;5.84;64.71;100675.42;1710458;81;27014;-65
2021/03/31 06:04:21;;;;;;;;;;;;;;;5.87;64.40;100674.52;1703326;81;22870;-62
2021/03/31 06:06:49;;;;;;;20.43;13.78;;;;;;;5.91;64.92;100672.31;1702077;81;20460;-65
2021/03/31 06:09:16;;;;;;;19.12;12.88;;;;;;;5.97;64.72;100676.20;1697200;82;21229;-66
2021/03/31 15:39:48;;;;;;;29.75;19.05;;;;;;;11.81;65.05;100224.50;1792283;77;23189;-65
2021/03/31 15:42:16;;;;;;;25.82;18.87;;;;;;;11.83;66.16;100227.50;1772343;78;21225;-66
2021/03/31 15:44:45;;;;;;;27.22;18.90;;;;;;;12.02;66.62;100224.19;1797848;78;21857;-66
2021/03/31 15:47:25;;;;;;;32.00;20.30;;;;;;;12.11;66.41;100218.98;1765536;80;21697;-66
2021/03/31 15:49:52;;;;;;;30.50;19.67;;;;;;;12.15;66.54;100215.30;1717068;81;21646;-67
2021/03/31 15:52:20;;;;;;;33.02;21.85;;;;;;;12.18;66.56;100217.36;1746174;81;21705;-66
2021/03/31 15:54:52;;;;;;;33.10;20.65;;;;;;;12.22;66.59;100216.34;1738742;81;21607;-66
2021/03/31 15:57:21;;;;;;;31.45;21.57;;;;;;;12.24;66.57;100217.57;1762757;79;21595;-66
2021/03/31 15:59:50;;;;;;;27.37;21.02;;;;;;;12.26;66.54;100214.41;1756702;80;21599;-66
2021/03/31 16:02:19;;;;;;;32.10;22.58;;;;;;;12.29;66.51;100218.25;1749578;80;21653;-66
2021/03/31 16:05:16;;;;;;;32.80;22.02;;;;;;;12.31;66.45;100216.87;1757460;80;21618;-66
2021/03/31 16:08:02;;;;;;;32.88;20.97;;;;;;;12.39;66.86;100220.89;1747751;80;22204;-65
2021/03/31 16:10:32;;;;;;;29.20;21.87;;;;;;;12.52;66.26;100220.41;1755925;80;22057;-69
2021/03/31 16:13:00;;;;;;;33.13;22.13;;;;;;;12.50;66.21;100218.30;1710338;80;21584;-68
2021/03/31 16:15:30;;;;;;;34.53;22.67;;;;;;;12.52;66.07;100216.45;1742684;81;21169;-65
2021/03/31 16:17:57;;;;;;;;;;;;;;;12.50;65.92;100207.75;1745008;79;21235;-65
2021/03/31 16:20:25;;;;;;;;;;;;;;;12.51;65.81;100208.12;1724301;81;20555;-67
2021/03/31 16:22:52;;;;;;;30.90;22.35;;;;;;;12.45;65.74;100204.84;1748453;80;20800;-66
2021/03/31 16:25:20;;;;;;;32.08;23.85;;;;;;;12.40;65.83;100203.31;1746085;80;24400;-67
2021/03/31 16:33:05;;;;;;;33.70;23.67;;;;;;;12.32;66.00;100210.23;1766017;79;21602;-65
2021/03/31 16:35:33;;;;;;;33.98;24.37;;;;;;;12.38;66.60;100210.44;1764850;80;21944;-64
2021/03/31 16:38:01;;;;;;;33.70;23.87;;;;;;;12.47;66.28;100212.70;1763344;79;21237;-65
2021/03/31 16:40:28;;;;;;;;;;;;;;;12.48;66.13;100210.91;1735480;80;21281;-64
2021/03/31 16:42:56;;;;;;;35.88;25.27;;;;;;;12.45;65.99;100207.92;1764077;80;20486;-64
2021/03/31 16:45:24;;;;;;;40.55;27.45;;;;;;;12.40;65.99;100210.77;1754239;80;21559;-64
2021/03/31 16:47:52;;;;;;;40.63;27.82;;;;;;;12.38;66.03;100214.39;1730528;81;22095;-64
2021/03/31 16:50:20;;;;;;;42.60;29.02;;;;;;;12.34;66.20;100212.34;1736773;81;21139;-64
2021/03/31 16:52:48;;;;;;;;;;;;;;;12.31;66.27;100215.09;1764127;80;21736;-64
2021/03/31 16:55:16;;;;;;;39.88;28.27;;;;;;;12.28;66.46;100213.89;1752880;80;20575;-64
2021/03/31 16:57:44;;;;;;;42.93;29.35;;;;;;;12.24;66.45;100208.34;1756738;80;21687;-64
2021/03/31 17:00:13;;;;;;;;;;;;;;;12.22;66.62;100216.78;1730525;81;21953;-66
2021/03/31 17:02:41;;;;;;;42.93;26.93;;;;;;;12.28;66.91;100216.52;1731777;81;20498;-63
2021/03/31 17:05:10;;;;;;;41.85;29.72;;;;;;;12.38;66.75;100218.34;1747414;80;25815;-63
2021/03/31 17:07:38;;;;;;;43.42;30.65;;;;;;;12.38;66.70;100217.88;1733795;80;21135;-63
2021/03/31 17:10:09;;;;;;;53.23;30.97;;;;;;;12.35;66.69;100212.72;1743815;80;21598;-64
2021/03/31 17:12:37;;;;;;;49.50;32.25;;;;;;;12.37;66.62;100217.94;1722010;81;22101;-65
2021/03/31 17:15:06;;;;;;;49.88;31.42;;;;;;;12.36;66.58;100215.77;1769770;80;21214;-64
2021/03/31 17:17:34;;;;;;;51.88;34.55;;;;;;;12.37;66.57;100215.30;1743628;81;21648;-67
2021/03/31 17:20:03;;;;;;;45.52;32.60;;;;;;;12.32;66.73;100213.30;1737293;80;21702;-66
2021/03/31 17:22:32;;;;;;;47.17;33.28;;;;;;;12.30;66.80;100215.15;1728665;80;21662;-66
2021/03/31 17:24:59;;;;;;;50.78;32.03;;;;;;;12.27;66.92;100219.63;1732724;80;21884;-72
2021/03/31 17:27:28;;;;;;;42.53;30.70;;;;;;;12.25;67.49;100210.92;1729220;80;21618;-68
2021/03/31 17:29:56;;;;;;;;;;;;;;;12.37;67.38;100215.30;1749955;80;21579;-69
2021/03/31 17:32:23;;;;;;;46.65;31.45;;;;;;;12.36;67.41;100218.88;1750962;80;20637;-67
2021/03/31 17:34:51;;;;;;;47.83;32.53;;;;;;;12.31;67.28;100210.28;1750129;80;21226;-67
2021/03/31 17:37:19;;;;;;;;;;;;;;;12.27;67.23;100218.31;1745336;81;22114;-68
2021/03/31 17:39:47;;;;;;;43.78;31.35;;;;;;;12.26;67.60;100214.41;1743079;80;29249;-67
2021/03/31 17:42:15;;;;;;;49.08;32.28;;;;;;;12.21;67.25;100205.86;1791176;77;21684;-67
2021/03/31 17:44:42;;;;;;;;;;;;;;;12.19;67.34;100203.74;1800180;78;21559;-69
2021/03/31 17:47:10;;;;;;;45.50;33.63;;;;;;;12.16;67.69;100199.90;1798581;77;20592;-68
2021/03/31 17:49:39;;;;;;;46.95;32.17;;;;;;;12.10;67.42;100202.33;1798317;77;22115;-68
2021/03/31 17:52:10;;;;;;;43.60;32.23;;;;;;;12.13;68.26;100205.28;1796210;77;21606;-64
2021/03/31 17:54:38;;;;;;;48.85;33.98;;;;;;;12.23;68.12;100210.13;1794260;77;21626;-63
2021/03/31 17:57:07;;;;;;;48.58;34.63;;;;;;;12.19;68.11;100201.95;1802419;77;21528;-63
2021/03/31 17:59:37;;;;;;;50.05;34.45;;;;;;;12.17;68.06;100204.27;1789864;78;21198;-63
2021/03/31 18:02:05;;;;;;;50.45;33.85;;;;;;;12.14;68.14;100198.64;1796658;77;21891;-65
2021/03/31 18:04:35;;;;;;;52.78;34.92;;;;;;;12.12;68.12;100203.12;1797153;77;21595;-63
2021/03/31 18:07:04;;;;;;;46.23;32.05;;;;;;;12.10;68.22;100201.00;1733027;81;21503;-64
2021/03/31 18:09:32;;;;;;;43.83;30.55;;;;;;;12.06;68.32;100201.59;1739323;80;21495;-66
2021/03/31 18:12:00;;;;;;;44.30;31.12;;;;;;;12.00;68.95;100178.12;1760076;80;21568;-66
2021/03/31 18:14:29;;;;;;;45.33;30.60;;;;;;;12.17;68.79;100195.89;1804858;77;21925;-64
2021/03/31 18:16:59;;;;;;;41.15;31.82;;;;;;;12.14;68.75;100198.64;1795388;77;21571;-64
2021/03/31 18:19:26;;;;;;;43.42;31.23;;;;;;;12.14;68.77;100195.16;1795859;77;21576;-64
2021/03/31 18:21:55;;;;;;;43.50;32.30;;;;;;;12.09;68.86;100196.64;1795522;77;21657;-61
2021/03/31 18:24:23;;;;;;;49.10;34.40;;;;;;;12.05;68.92;100197.25;1801205;77;21669;-65
2021/03/31 18:26:51;;;;;;;41.35;29.10;;;;;;;12.00;69.07;100188.66;1793626;77;22064;-66
2021/03/31 18:29:18;;;;;;;43.25;30.52;;;;;;;12.05;69.73;100190.66;1804650;77;28331;-65
2021/03/31 18:31:47;;;;;;;45.15;30.80;;;;;;;12.12;69.38;100188.63;1789229;77;21575;-66
2021/03/31 18:34:15;;;;;;;45.60;31.05;;;;;;;12.07;69.33;100190.14;1797622;77;21655;-72
2021/03/31 18:36:43;;;;;;;41.23;29.80;;;;;;;12.03;69.43;100183.25;1727490;81;21614;-71
2021/03/31 18:39:11;;;;;;;39.38;29.02;;;;;;;12.00;69.48;100187.34;1737283;81;22075;-66
2021/03/31 18:41:51;;;;;;;45.23;31.05;;;;;;;11.98;69.49;100188.30;1728250;81;25193;-66
2021/03/31 18:44:09;;;;;;;35.78;26.80;;;;;;;11.95;69.62;100186.66;1717682;80;21541;-65
2021/03/31 18:46:37;;;;;;;40.08;26.57;;;;;;;12.00;70.11;100185.17;1788416;77;21634;-65
2021/03/31 18:49:04;;;;;;;36.90;26.97;;;;;;;12.08;70.07;100181.30;1799145;77;21600;-65
2021/03/31 18:51:33;;;;;;;36.98;27.37;;;;;;;12.06;70.12;100179.66;1795170;77;21890;-66
2021/03/31 18:54:02;;;;;;;37.50;27.27;;;;;;;12.01;70.30;100173.23;1794283;77;21050;-65
2021/03/31 18:56:30;;;;;;;35.90;25.82;;;;;;;11.94;70.32;100170.91;1797071;77;21198;-65
2021/03/31 18:58:58;;;;;;;33.92;26.65;;;;;;;11.90;70.48;100172.80;1732380;81;21636;-66
2021/03/31 19:01:26;;;;;;;;;;;;;;;11.87;70.63;100171.12;1741973;80;21254;-66
2021/03/31 19:03:55;;;;;;;38.63;25.55;;;;;;;11.92;71.32;100174.06;1758390;79;22120;-66
2021/03/31 19:06:23;;;;;;;35.38;24.00;;;;;;;11.96;70.87;100171.27;1731318;80;21664;-65
2021/03/31 19:11:20;;;;;;;36.45;27.10;;;;;;;11.89;70.91;100164.48;1745558;80;21659;-66
2021/03/31 19:13:48;;;;;;;40.38;29.27;;;;;;;11.80;71.29;100163.53;1749954;80;21583;-65
2021/03/31 19:16:16;;;;;;;32.28;25.00;;;;;;;11.80;71.29;100163.53;1726497;80;22082;-65
2021/03/31 19:18:46;;;;;;;37.10;24.77;;;;;;;11.84;71.72;100165.12;1726477;81;21131;-67
2021/03/31 19:21:14;;;;;;;36.70;26.50;;;;;;;11.92;71.53;100154.30;1776628;78;21568;-64
2021/03/31 19:23:42;;;;;;;35.55;26.02;;;;;;;11.87;71.47;100156.63;1796817;77;21659;-64
2021/03/31 19:26:11;;;;;;;34.67;26.17;;;;;;;11.84;71.48;100158.53;1788989;78;21599;-65
2021/03/31 19:28:39;;;;;;;33.88;25.57;;;;;;;11.79;71.54;100157.84;1781710;77;22534;-68
2021/03/31 19:31:08;;;;;;;35.08;24.47;;;;;;;11.74;71.73;100163.31;1789139;77;21547;-65
2021/03/31 19:33:35;;;;;;;;;;;;;;;11.75;72.32;100156.26;1789059;77;21632;-72
2021/03/31 19:36:04;;;;;;;;;;;;;;;11.80;72.14;100156.94;1792312;77;20512;-67
2021/03/31 19:38:32;;;;;;;38.65;25.48;;;;;;;11.73;72.11;100160.27;1794570;77;20564;-70
2021/03/31 19:41:03;;;;;;;39.90;26.75;;;;;;;11.65;72.09;100157.93;1790995;77;22064;-66
2021/03/31 19:43:33;;;;;;;37.85;26.50;;;;;;;11.60;72.37;100163.86;1754273;79;21986;-68
2021/03/31 19:46:01;;;;;;;33.28;25.95;;;;;;;11.56;72.50;100160.07;1796278;76;21639;-66
2021/03/31 19:48:29;;;;;;;33.67;26.02;;;;;;;11.55;72.93;100156.59;1800004;77;21578;-66
2021/03/31 19:50:59;;;;;;;34.67;25.60;;;;;;;11.64;72.70;100159.30;1725996;80;21668;-66
2021/03/31 19:53:33;;;;;;;33.55;25.55;;;;;;;11.60;72.60;100153.33;1731126;81;21929;-66
2021/03/31 19:56:03;;;;;;;37.35;26.00;;;;;;;11.56;72.64;100159.61;1760978;80;21273;-64
2021/03/31 19:58:31;;;;;;;36.80;25.97;;;;;;;11.52;72.79;100156.70;1702534;81;21173;-68
2021/03/31 20:00:59;;;;;;;39.83;27.02;;;;;;;11.46;72.86;100148.57;1727790;80;21711;-64
2021/03/31 20:03:27;;;;;;;36.68;26.45;;;;;;;11.50;73.33;100149.31;1750446;80;21647;-65
2021/03/31 20:05:56;;;;;;;33.83;26.12;;;;;;;11.55;73.10;100150.00;1769413;79;21863;-65
2021/03/31 20:08:27;;;;;;;37.45;25.77;;;;;;;11.52;73.07;100149.27;1798705;77;21555;-66
2021/03/31 20:10:56;;;;;;;41.05;26.87;;;;;;;11.46;73.30;100149.89;1790122;78;21564;-65
2021/03/31 20:13:24;;;;;;;37.75;24.50;;;;;;;11.42;73.30;100144.81;1804498;77;28570;-66
2021/03/31 20:15:52;;;;;;;;;;;;;;;11.42;73.72;100144.34;1770189;80;21552;-64
2021/03/31 20:18:22;;;;;;;37.08;25.12;;;;;;;11.47;73.49;100143.72;1743408;80;22080;-64
2021/03/31 20:20:50;;;;;;;33.30;25.23;;;;;;;11.40;73.32;100139.60;1750565;80;21687;-64
2021/03/31 20:23:18;;;;;;;35.17;25.95;;;;;;;11.36;73.31;100138.01;1725567;80;21600;-63
2021/03/31 20:25:46;;;;;;;38.88;27.35;;;;;;;11.33;73.35;100135.95;1722284;81;21179;-64
2021/03/31 20:28:14;;;;;;;37.33;26.05;;;;;;;11.29;73.36;100136.52;1733654;81;21603;-64
2021/03/31 20:30:41;;;;;;;35.63;25.40;;;;;;;11.34;73.89;100134.58;1757206;80;22073;-64
2021/03/31 20:33:12;;;;;;;34.23;25.47;;;;;;;11.40;73.61;100134.34;1796095;77;21583;-65
2021/03/31 20:35:39;;;;;;;33.95;26.25;;;;;;;11.36;73.47;100135.37;1763766;80;21628;-64
2021/03/31 20:38:08;;;;;;;37.40;27.73;;;;;;;11.36;73.39;100138.01;1795277;77;21645;-65
2021/03/31 20:40:38;;;;;;;36.15;27.62;;;;;;;11.32;73.44;100128.52;1796214;78;21213;-64
2021/03/31 20:43:06;;;;;;;35.20;26.30;;;;;;;11.29;73.50;100130.78;1797241;77;21779;-66
2021/03/31 20:45:34;;;;;;;35.65;26.37;;;;;;;11.30;73.96;100128.57;1797586;78;27272;-64
2021/03/31 20:48:02;;;;;;;39.03;28.90;;;;;;;11.37;73.72;100134.91;1792029;79;21788;-64
2021/03/31 20:50:30;;;;;;;37.83;29.55;;;;;;;11.36;73.58;100131.86;1795042;78;21626;-64
2021/03/31 20:52:59;;;;;;;44.08;29.85;;;;;;;11.34;73.45;100133.70;1795557;77;21491;-64
2021/03/31 20:55:27;;;;;;;41.53;30.55;;;;;;;11.29;73.43;100129.47;1785144;78;21931;-64
2021/03/31 20:57:55;;;;;;;40.65;27.02;;;;;;;11.26;73.36;100127.41;1802335;77;21559;-64
2021/03/31 21:00:24;;;;;;;36.75;28.92;;;;;;;11.27;73.69;100126.05;1783542;79;21702;-64
2021/03/31 21:02:52;;;;;;;34.80;27.50;;;;;;;11.34;73.52;100127.11;1795482;77;21622;-64
2021/03/31 21:05:20;;;;;;;;;;;;;;;11.26;73.43;100125.66;1810859;77;21640;-64
2021/03/31 21:07:48;;;;;;;41.02;28.00;;;;;;;11.18;73.56;100118.95;1798271;77;21909;-64
2021/03/31 21:10:16;;;;;;;;;;;;;;;11.09;73.42;100122.78;1801808;78;21679;-64
2021/03/31 21:12:44;;;;;;;37.08;27.67;;;;;;;11.02;73.58;100122.17;1781064;77;20527;-64